SNJ101 RJFF-ROAH
Flight info
| Callsign | SNJ101 |
|---|---|
| Flight time | 1h 34m |
| Altitude | 32000 |
| Route | YAMGA VEMRA Y506 HKC Y45 ONC Y525 IHEYA |
| Aircraft | B738/M-SDE2E3FGHIRWXY/LB1 |
Departure
| Time | 2026-04-23 15:41 |
|---|---|
| Airport | Fukuoka Airport (RJFF) |
Arrival
| Time | 2026-04-23 17:15 |
|---|---|
| Airport | Naha International Airport (ROAH) |
| Time | Latitude | Longitude | Altitude | Speed | Heading |
|---|---|---|---|---|---|
| 2026-04-23 15:01 | 33.59449 | 130.44930 | 43 ft | 0 kts | 60° |
| 2026-04-23 15:29 | 33.59445 | 130.44922 | 43 ft | 2 kts | 60° |
| 2026-04-23 15:29 | 33.59438 | 130.44907 | 43 ft | 2 kts | 61° |
| 2026-04-23 15:29 | 33.59432 | 130.44890 | 43 ft | 2 kts | 78° |
| 2026-04-23 15:30 | 33.59430 | 130.44871 | 43 ft | 2 kts | 90° |
| 2026-04-23 15:30 | 33.59432 | 130.44853 | 43 ft | 2 kts | 102° |
| 2026-04-23 15:30 | 33.59436 | 130.44836 | 43 ft | 2 kts | 115° |
| 2026-04-23 15:30 | 33.59444 | 130.44821 | 43 ft | 2 kts | 128° |
| 2026-04-23 15:31 | 33.59454 | 130.44809 | 43 ft | 2 kts | 141° |
| 2026-04-23 15:31 | 33.59462 | 130.44801 | 43 ft | 1 kts | 149° |
| 2026-04-23 15:31 | 33.59466 | 130.44798 | 43 ft | 0 kts | 150° |
| 2026-04-23 15:33 | 33.59465 | 130.44800 | 43 ft | 1 kts | 150° |
| 2026-04-23 15:33 | 33.59410 | 130.44838 | 43 ft | 14 kts | 152° |
| 2026-04-23 15:33 | 33.59327 | 130.44853 | 43 ft | 16 kts | 179° |
| 2026-04-23 15:33 | 33.59209 | 130.44876 | 43 ft | 16 kts | 149° |
| 2026-04-23 15:34 | 33.59108 | 130.44945 | 43 ft | 17 kts | 150° |
| 2026-04-23 15:34 | 33.59001 | 130.45018 | 43 ft | 18 kts | 150° |
| 2026-04-23 15:34 | 33.58888 | 130.45096 | 43 ft | 19 kts | 150° |
| 2026-04-23 15:34 | 33.58770 | 130.45175 | 43 ft | 19 kts | 150° |
| 2026-04-23 15:35 | 33.58646 | 130.45259 | 43 ft | 20 kts | 149° |
| 2026-04-23 15:35 | 33.58527 | 130.45342 | 43 ft | 20 kts | 150° |
| 2026-04-23 15:35 | 33.58401 | 130.45427 | 43 ft | 21 kts | 150° |
| 2026-04-23 15:35 | 33.58269 | 130.45515 | 43 ft | 22 kts | 148° |
| 2026-04-23 15:36 | 33.58134 | 130.45612 | 43 ft | 22 kts | 149° |
| 2026-04-23 15:36 | 33.57993 | 130.45706 | 43 ft | 23 kts | 150° |
| 2026-04-23 15:36 | 33.57847 | 130.45804 | 43 ft | 24 kts | 152° |
| 2026-04-23 15:36 | 33.57727 | 130.45865 | 43 ft | 3 kts | 175° |
| 2026-04-23 15:37 | 33.57724 | 130.45863 | 43 ft | 0 kts | 188° |
| 2026-04-23 15:37 | 33.57720 | 130.45860 | 43 ft | 1 kts | 217° |
| 2026-04-23 15:37 | 33.57712 | 130.45854 | 43 ft | 2 kts | 217° |
| 2026-04-23 15:38 | 33.57704 | 130.45845 | 43 ft | 0 kts | 231° |
| 2026-04-23 15:39 | 33.57685 | 130.45810 | 41 ft | 6 kts | 239° |
| 2026-04-23 15:39 | 33.57661 | 130.45761 | 41 ft | 7 kts | 240° |
| 2026-04-23 15:39 | 33.57665 | 130.45708 | 41 ft | 6 kts | 304° |
| 2026-04-23 15:40 | 33.57707 | 130.45674 | 41 ft | 7 kts | 330° |
| 2026-04-23 15:40 | 33.57853 | 130.45573 | 41 ft | 62 kts | 329° |
| 2026-04-23 15:40 | 33.58491 | 130.45138 | 41 ft | 144 kts | 329° |
| 2026-04-23 15:40 | 33.59484 | 130.44453 | 476 ft | 175 kts | 333° |
| 2026-04-23 15:41 | 33.60547 | 130.43733 | 1380 ft | 184 kts | 335° |
| 2026-04-23 15:41 | 33.61652 | 130.43062 | 2447 ft | 180 kts | 343° |
| 2026-04-23 15:41 | 33.62762 | 130.42354 | 3344 ft | 191 kts | 337° |
| 2026-04-23 15:41 | 33.63907 | 130.41499 | 4295 ft | 196 kts | 335° |
| 2026-04-23 15:42 | 33.65100 | 130.40802 | 5174 ft | 194 kts | 355° |
| 2026-04-23 15:42 | 33.66385 | 130.41046 | 6018 ft | 192 kts | 31° |
| 2026-04-23 15:42 | 33.67372 | 130.42056 | 6944 ft | 193 kts | 52° |
| 2026-04-23 15:42 | 33.68004 | 130.43466 | 7757 ft | 201 kts | 70° |
| 2026-04-23 15:43 | 33.68131 | 130.45163 | 8433 ft | 219 kts | 98° |
| 2026-04-23 15:43 | 33.67508 | 130.46935 | 9054 ft | 240 kts | 118° |
| 2026-04-23 15:43 | 33.66588 | 130.48698 | 9642 ft | 260 kts | 120° |
| 2026-04-23 15:43 | 33.65610 | 130.50598 | 10261 ft | 277 kts | 119° |
| 2026-04-23 15:44 | 33.64565 | 130.52596 | 10894 ft | 295 kts | 125° |
| 2026-04-23 15:44 | 33.63155 | 130.54390 | 11447 ft | 304 kts | 144° |
| 2026-04-23 15:44 | 33.61248 | 130.55592 | 12043 ft | 320 kts | 159° |
| 2026-04-23 15:44 | 33.59083 | 130.56551 | 12666 ft | 337 kts | 162° |
| 2026-04-23 15:45 | 33.56854 | 130.57501 | 13315 ft | 353 kts | 162° |
| 2026-04-23 15:45 | 33.54473 | 130.58574 | 13924 ft | 371 kts | 161° |
| 2026-04-23 15:45 | 33.52021 | 130.59740 | 14524 ft | 388 kts | 161° |
| 2026-04-23 15:45 | 33.49491 | 130.60985 | 15297 ft | 399 kts | 160° |
| 2026-04-23 15:46 | 33.46901 | 130.62283 | 16173 ft | 406 kts | 160° |
| 2026-04-23 15:46 | 33.44317 | 130.63574 | 17058 ft | 410 kts | 161° |
| 2026-04-23 15:46 | 33.41606 | 130.64764 | 17886 ft | 415 kts | 166° |
| 2026-04-23 15:46 | 33.38850 | 130.65768 | 18739 ft | 417 kts | 169° |
| 2026-04-23 15:47 | 33.36053 | 130.66689 | 19623 ft | 419 kts | 171° |
| 2026-04-23 15:47 | 33.33229 | 130.67587 | 20403 ft | 424 kts | 172° |
| 2026-04-23 15:47 | 33.30385 | 130.68492 | 21188 ft | 428 kts | 172° |
| 2026-04-23 15:47 | 33.27494 | 130.69423 | 21986 ft | 431 kts | 173° |
| 2026-04-23 15:48 | 33.24582 | 130.70372 | 22742 ft | 434 kts | 173° |
| 2026-04-23 15:48 | 33.21658 | 130.71332 | 23460 ft | 438 kts | 173° |
| 2026-04-23 15:48 | 33.18749 | 130.72298 | 24232 ft | 440 kts | 174° |
| 2026-04-23 15:48 | 33.15769 | 130.73290 | 24958 ft | 444 kts | 174° |
| 2026-04-23 15:49 | 33.12762 | 130.74225 | 25593 ft | 446 kts | 176° |
| 2026-04-23 15:49 | 33.09732 | 130.74870 | 26382 ft | 437 kts | 184° |
| 2026-04-23 15:49 | 33.06757 | 130.74999 | 27337 ft | 423 kts | 192° |
| 2026-04-23 15:49 | 33.03914 | 130.74797 | 28495 ft | 409 kts | 195° |
| 2026-04-23 15:50 | 33.01121 | 130.74452 | 29620 ft | 397 kts | 198° |
| 2026-04-23 15:50 | 32.98440 | 130.74068 | 30699 ft | 387 kts | 199° |
| 2026-04-23 15:50 | 32.95782 | 130.73671 | 31474 ft | 383 kts | 200° |
| 2026-04-23 15:50 | 32.93134 | 130.73274 | 31832 ft | 387 kts | 200° |
| 2026-04-23 15:51 | 32.90425 | 130.72878 | 31888 ft | 389 kts | 200° |
| 2026-04-23 15:51 | 32.85054 | 130.72159 | 31887 ft | 387 kts | 199° |
| 2026-04-23 15:52 | 32.79706 | 130.71483 | 31884 ft | 388 kts | 199° |
| 2026-04-23 15:52 | 32.74318 | 130.70824 | 31885 ft | 390 kts | 199° |
| 2026-04-23 15:53 | 32.68966 | 130.70174 | 31878 ft | 388 kts | 199° |
| 2026-04-23 15:53 | 32.63573 | 130.69519 | 31877 ft | 388 kts | 199° |
| 2026-04-23 15:54 | 32.58221 | 130.68877 | 31874 ft | 390 kts | 199° |
| 2026-04-23 15:54 | 32.52842 | 130.68225 | 31869 ft | 388 kts | 199° |
| 2026-04-23 15:55 | 32.47446 | 130.67572 | 31865 ft | 387 kts | 199° |
| 2026-04-23 15:55 | 32.42068 | 130.66923 | 31858 ft | 389 kts | 199° |
| 2026-04-23 15:56 | 32.36701 | 130.66273 | 31857 ft | 390 kts | 199° |
| 2026-04-23 15:56 | 32.31306 | 130.65622 | 31862 ft | 390 kts | 199° |
| 2026-04-23 15:57 | 32.25930 | 130.64978 | 31849 ft | 388 kts | 199° |
| 2026-04-23 15:57 | 32.20556 | 130.64337 | 31854 ft | 387 kts | 199° |
| 2026-04-23 15:58 | 32.15162 | 130.63692 | 31848 ft | 389 kts | 200° |
| 2026-04-23 15:58 | 32.09779 | 130.63046 | 31838 ft | 389 kts | 199° |
| 2026-04-23 15:59 | 32.04356 | 130.62398 | 31839 ft | 393 kts | 199° |
| 2026-04-23 15:59 | 32.01616 | 130.62061 | 31842 ft | 406 kts | 199° |
| 2026-04-23 15:59 | 31.98761 | 130.61702 | 31844 ft | 418 kts | 198° |
| 2026-04-23 16:00 | 31.92882 | 130.60986 | 31839 ft | 426 kts | 198° |
| 2026-04-23 16:00 | 31.86974 | 130.60297 | 31841 ft | 428 kts | 198° |
| 2026-04-23 16:01 | 31.81032 | 130.59607 | 31847 ft | 431 kts | 198° |
| 2026-04-23 16:01 | 31.75059 | 130.58913 | 31846 ft | 429 kts | 198° |
| 2026-04-23 16:02 | 31.69219 | 130.57913 | 31839 ft | 419 kts | 205° |
| 2026-04-23 16:02 | 31.63720 | 130.55843 | 31842 ft | 408 kts | 211° |
| 2026-04-23 16:03 | 31.58464 | 130.53397 | 31841 ft | 408 kts | 213° |
| 2026-04-23 16:03 | 31.53172 | 130.50943 | 31839 ft | 407 kts | 211° |
| 2026-04-23 16:04 | 31.47833 | 130.48540 | 31844 ft | 412 kts | 211° |
| 2026-04-23 16:04 | 31.42524 | 130.46197 | 31841 ft | 405 kts | 211° |
| 2026-04-23 16:05 | 31.38052 | 130.44228 | 31847 ft | 412 kts | 211° |
| 2026-04-23 16:05 | 31.31783 | 130.41475 | 31848 ft | 412 kts | 211° |
| 2026-04-23 16:06 | 31.26415 | 130.39125 | 31851 ft | 410 kts | 211° |
| 2026-04-23 16:06 | 31.21110 | 130.36685 | 31853 ft | 412 kts | 213° |
| 2026-04-23 16:07 | 31.15820 | 130.34174 | 31854 ft | 411 kts | 212° |
| 2026-04-23 16:07 | 31.10518 | 130.31656 | 31858 ft | 413 kts | 212° |
| 2026-04-23 16:08 | 31.05231 | 130.29164 | 31858 ft | 412 kts | 211° |
| 2026-04-23 16:08 | 30.99886 | 130.26656 | 31853 ft | 412 kts | 211° |
| 2026-04-23 16:09 | 30.94558 | 130.24167 | 31855 ft | 412 kts | 212° |
| 2026-04-23 16:09 | 30.89252 | 130.21699 | 31855 ft | 409 kts | 211° |
| 2026-04-23 16:10 | 30.83918 | 130.19217 | 31854 ft | 417 kts | 212° |
| 2026-04-23 16:10 | 30.78544 | 130.16721 | 31853 ft | 415 kts | 212° |
| 2026-04-23 16:11 | 30.73206 | 130.14249 | 31852 ft | 417 kts | 211° |
| 2026-04-23 16:11 | 30.67798 | 130.11742 | 31851 ft | 419 kts | 211° |
| 2026-04-23 16:12 | 30.62430 | 130.09259 | 31847 ft | 414 kts | 211° |
| 2026-04-23 16:12 | 30.57032 | 130.06758 | 31845 ft | 417 kts | 211° |
| 2026-04-23 16:13 | 30.51651 | 130.04318 | 31842 ft | 414 kts | 211° |
| 2026-04-23 16:13 | 30.43558 | 130.00682 | 31833 ft | 417 kts | 211° |
| 2026-04-23 16:14 | 30.38140 | 129.98250 | 31835 ft | 416 kts | 211° |
| 2026-04-23 16:14 | 30.32677 | 129.95804 | 31836 ft | 420 kts | 210° |
| 2026-04-23 16:15 | 30.27194 | 129.93503 | 31838 ft | 418 kts | 209° |
| 2026-04-23 16:15 | 30.21666 | 129.91229 | 31841 ft | 419 kts | 209° |
| 2026-04-23 16:16 | 30.16109 | 129.88943 | 31840 ft | 424 kts | 210° |
| 2026-04-23 16:16 | 30.10555 | 129.86656 | 31842 ft | 425 kts | 209° |
| 2026-04-23 16:17 | 30.04979 | 129.84360 | 31836 ft | 421 kts | 209° |
| 2026-04-23 16:17 | 29.99448 | 129.82071 | 31840 ft | 425 kts | 209° |
| 2026-04-23 16:18 | 29.93955 | 129.79607 | 31848 ft | 421 kts | 211° |
| 2026-04-23 16:18 | 29.88295 | 129.76959 | 31854 ft | 420 kts | 211° |
| 2026-04-23 16:19 | 29.74526 | 129.70535 | 31861 ft | 423 kts | 211° |
| 2026-04-23 16:19 | 29.64535 | 129.65930 | 31881 ft | 434 kts | 211° |
| 2026-04-23 16:20 | 29.61585 | 129.64572 | 32083 ft | 443 kts | 210° |
| 2026-04-23 16:20 | 29.58587 | 129.63202 | 32536 ft | 444 kts | 210° |
| 2026-04-23 16:20 | 29.55597 | 129.61841 | 33048 ft | 443 kts | 210° |
| 2026-04-23 16:20 | 29.52623 | 129.60487 | 33523 ft | 443 kts | 210° |
| 2026-04-23 16:21 | 29.49638 | 129.59129 | 33850 ft | 440 kts | 210° |
| 2026-04-23 16:21 | 29.46741 | 129.57822 | 33864 ft | 423 kts | 211° |
| 2026-04-23 16:21 | 29.43932 | 129.56563 | 33866 ft | 407 kts | 210° |
| 2026-04-23 16:21 | 29.41204 | 129.55330 | 33870 ft | 405 kts | 211° |
| 2026-04-23 16:22 | 29.35718 | 129.52821 | 33867 ft | 402 kts | 212° |
| 2026-04-23 16:22 | 29.30221 | 129.50372 | 33864 ft | 408 kts | 210° |
| 2026-04-23 16:23 | 29.24658 | 129.48114 | 33865 ft | 413 kts | 210° |
| 2026-04-23 16:23 | 29.19016 | 129.45854 | 33871 ft | 413 kts | 210° |
| 2026-04-23 16:24 | 29.13378 | 129.43587 | 33873 ft | 410 kts | 210° |
| 2026-04-23 16:24 | 29.07811 | 129.41342 | 33875 ft | 411 kts | 210° |
| 2026-04-23 16:25 | 29.02172 | 129.39055 | 33873 ft | 411 kts | 209° |
| 2026-04-23 16:25 | 28.96572 | 129.36766 | 33876 ft | 410 kts | 210° |
| 2026-04-23 16:26 | 28.91004 | 129.34332 | 33882 ft | 410 kts | 210° |
| 2026-04-23 16:26 | 28.85469 | 129.31876 | 33874 ft | 409 kts | 210° |
| 2026-04-23 16:27 | 28.79895 | 129.29402 | 33875 ft | 413 kts | 210° |
| 2026-04-23 16:27 | 28.74353 | 129.26962 | 33881 ft | 415 kts | 210° |
| 2026-04-23 16:28 | 28.68734 | 129.24499 | 33878 ft | 412 kts | 209° |
| 2026-04-23 16:28 | 28.63184 | 129.22075 | 33880 ft | 413 kts | 209° |
| 2026-04-23 16:29 | 28.57593 | 129.19636 | 33883 ft | 412 kts | 209° |
| 2026-04-23 16:29 | 28.51992 | 129.17191 | 33885 ft | 418 kts | 209° |
| 2026-04-23 16:30 | 28.46413 | 129.14764 | 33885 ft | 414 kts | 209° |
| 2026-04-23 16:30 | 28.40738 | 129.12293 | 33889 ft | 416 kts | 209° |
| 2026-04-23 16:31 | 28.35127 | 129.09863 | 33884 ft | 417 kts | 209° |
| 2026-04-23 16:31 | 28.29501 | 129.07431 | 33892 ft | 417 kts | 209° |
| 2026-04-23 16:32 | 28.23840 | 129.04982 | 33895 ft | 420 kts | 209° |
| 2026-04-23 16:32 | 28.18181 | 129.02536 | 33895 ft | 419 kts | 209° |
| 2026-04-23 16:33 | 28.12534 | 129.00073 | 33894 ft | 415 kts | 209° |
| 2026-04-23 16:33 | 28.06961 | 128.97528 | 33898 ft | 418 kts | 210° |
| 2026-04-23 16:34 | 28.01300 | 128.94911 | 33897 ft | 419 kts | 210° |
| 2026-04-23 16:34 | 27.95672 | 128.92328 | 33901 ft | 419 kts | 209° |
| 2026-04-23 16:35 | 27.90063 | 128.89763 | 33897 ft | 421 kts | 209° |
| 2026-04-23 16:35 | 27.84366 | 128.87264 | 33898 ft | 421 kts | 208° |
| 2026-04-23 16:36 | 27.78702 | 128.84878 | 33899 ft | 418 kts | 208° |
| 2026-04-23 16:36 | 27.72950 | 128.82454 | 33894 ft | 423 kts | 208° |
| 2026-04-23 16:37 | 27.67277 | 128.80063 | 33901 ft | 418 kts | 208° |
| 2026-04-23 16:37 | 27.61542 | 128.77637 | 33908 ft | 421 kts | 208° |
| 2026-04-23 16:38 | 27.55851 | 128.75230 | 33905 ft | 423 kts | 208° |
| 2026-04-23 16:38 | 27.50155 | 128.72819 | 33906 ft | 420 kts | 208° |
| 2026-04-23 16:39 | 27.44662 | 128.69989 | 33906 ft | 411 kts | 220° |
| 2026-04-23 16:39 | 27.42472 | 128.67856 | 33904 ft | 399 kts | 233° |
| 2026-04-23 16:39 | 27.40727 | 128.65245 | 33913 ft | 397 kts | 240° |
| 2026-04-23 16:40 | 27.37773 | 128.59749 | 33901 ft | 395 kts | 243° |
| 2026-04-23 16:40 | 27.34945 | 128.54239 | 33907 ft | 395 kts | 243° |
| 2026-04-23 16:41 | 27.32070 | 128.48685 | 33905 ft | 397 kts | 243° |
| 2026-04-23 16:41 | 27.29162 | 128.43129 | 33912 ft | 396 kts | 242° |
| 2026-04-23 16:42 | 27.26248 | 128.37602 | 33904 ft | 394 kts | 242° |
| 2026-04-23 16:42 | 27.25168 | 128.35558 | 33907 ft | 394 kts | 242° |
| 2026-04-23 16:43 | 27.22236 | 128.30014 | 33896 ft | 397 kts | 242° |
| 2026-04-23 16:43 | 27.19311 | 128.24495 | 33880 ft | 396 kts | 242° |
| 2026-04-23 16:44 | 27.16358 | 128.18927 | 33878 ft | 406 kts | 243° |
| 2026-04-23 16:44 | 27.13302 | 128.13171 | 33935 ft | 416 kts | 243° |
| 2026-04-23 16:45 | 27.11767 | 128.10283 | 33820 ft | 418 kts | 243° |
| 2026-04-23 16:45 | 27.10227 | 128.07393 | 33460 ft | 414 kts | 243° |
| 2026-04-23 16:45 | 27.08692 | 128.04515 | 33094 ft | 412 kts | 243° |
| 2026-04-23 16:45 | 27.07157 | 128.01636 | 32712 ft | 408 kts | 242° |
| 2026-04-23 16:46 | 27.05657 | 127.98827 | 32112 ft | 403 kts | 242° |
| 2026-04-23 16:46 | 27.04115 | 127.96108 | 31352 ft | 402 kts | 238° |
| 2026-04-23 16:46 | 27.02305 | 127.93541 | 30563 ft | 399 kts | 232° |
| 2026-04-23 16:46 | 27.00259 | 127.91280 | 29804 ft | 393 kts | 226° |
| 2026-04-23 16:47 | 26.98031 | 127.89387 | 29052 ft | 390 kts | 218° |
| 2026-04-23 16:47 | 26.95577 | 127.87865 | 28317 ft | 387 kts | 211° |
| 2026-04-23 16:47 | 26.93000 | 127.86664 | 27587 ft | 383 kts | 205° |
| 2026-04-23 16:47 | 26.90350 | 127.85847 | 26866 ft | 384 kts | 197° |
| 2026-04-23 16:48 | 26.87576 | 127.85420 | 26140 ft | 390 kts | 189° |
| 2026-04-23 16:48 | 26.84721 | 127.85466 | 25425 ft | 398 kts | 182° |
| 2026-04-23 16:48 | 26.81866 | 127.85774 | 24700 ft | 393 kts | 179° |
| 2026-04-23 16:48 | 26.79032 | 127.86154 | 23969 ft | 387 kts | 179° |
| 2026-04-23 16:49 | 26.77194 | 127.86416 | 23497 ft | 383 kts | 179° |
| 2026-04-23 16:49 | 26.73579 | 127.86947 | 22585 ft | 374 kts | 178° |
| 2026-04-23 16:49 | 26.70919 | 127.87344 | 21926 ft | 368 kts | 178° |
| 2026-04-23 16:49 | 26.68297 | 127.87739 | 21270 ft | 362 kts | 178° |
| 2026-04-23 16:50 | 26.65719 | 127.88126 | 20616 ft | 357 kts | 178° |
| 2026-04-23 16:50 | 26.63176 | 127.88509 | 19960 ft | 352 kts | 178° |
| 2026-04-23 16:50 | 26.60654 | 127.88888 | 19295 ft | 348 kts | 178° |
| 2026-04-23 16:50 | 26.58186 | 127.89258 | 18609 ft | 344 kts | 178° |
| 2026-04-23 16:51 | 26.55727 | 127.89626 | 17920 ft | 341 kts | 178° |
| 2026-04-23 16:51 | 26.53289 | 127.89993 | 17236 ft | 338 kts | 178° |
| 2026-04-23 16:51 | 26.50878 | 127.90356 | 16556 ft | 335 kts | 178° |
| 2026-04-23 16:51 | 26.48468 | 127.90716 | 15881 ft | 341 kts | 178° |
| 2026-04-23 16:52 | 26.45990 | 127.91081 | 15176 ft | 347 kts | 178° |
| 2026-04-23 16:52 | 26.43519 | 127.91453 | 14481 ft | 340 kts | 178° |
| 2026-04-23 16:52 | 26.41116 | 127.91781 | 13824 ft | 332 kts | 181° |
| 2026-04-23 16:52 | 26.38741 | 127.91698 | 13108 ft | 318 kts | 196° |
| 2026-04-23 16:53 | 26.36604 | 127.90916 | 12408 ft | 308 kts | 208° |
| 2026-04-23 16:53 | 26.34605 | 127.89873 | 11717 ft | 307 kts | 210° |
| 2026-04-23 16:53 | 26.32638 | 127.88789 | 11017 ft | 302 kts | 210° |
| 2026-04-23 16:53 | 26.30681 | 127.87727 | 10325 ft | 302 kts | 209° |
| 2026-04-23 16:54 | 26.28697 | 127.86679 | 9620 ft | 299 kts | 208° |
| 2026-04-23 16:54 | 26.26752 | 127.85677 | 8927 ft | 295 kts | 208° |
| 2026-04-23 16:54 | 26.24831 | 127.84696 | 8230 ft | 291 kts | 208° |
| 2026-04-23 16:54 | 26.22920 | 127.83723 | 7526 ft | 288 kts | 208° |
| 2026-04-23 16:55 | 26.21052 | 127.82771 | 6830 ft | 286 kts | 208° |
| 2026-04-23 16:55 | 26.19174 | 127.81814 | 6106 ft | 281 kts | 208° |
| 2026-04-23 16:55 | 26.17376 | 127.80897 | 5409 ft | 273 kts | 208° |
| 2026-04-23 16:55 | 26.15601 | 127.79988 | 4702 ft | 266 kts | 208° |
| 2026-04-23 16:56 | 26.13891 | 127.79111 | 4146 ft | 255 kts | 208° |
| 2026-04-23 16:56 | 26.12252 | 127.78275 | 3787 ft | 239 kts | 208° |
| 2026-04-23 16:56 | 26.11229 | 127.77754 | 3553 ft | 231 kts | 208° |
| 2026-04-23 16:56 | 26.09242 | 127.76739 | 3086 ft | 225 kts | 208° |
| 2026-04-23 16:57 | 26.07730 | 127.75964 | 2772 ft | 226 kts | 208° |
| 2026-04-23 16:57 | 26.06300 | 127.75151 | 2486 ft | 221 kts | 216° |
| 2026-04-23 16:57 | 26.05262 | 127.73932 | 2471 ft | 195 kts | 245° |
| 2026-04-23 16:57 | 26.05027 | 127.72494 | 2477 ft | 173 kts | 267° |
| 2026-04-23 16:58 | 26.05037 | 127.71154 | 2467 ft | 163 kts | 265° |
| 2026-04-23 16:58 | 26.04991 | 127.69853 | 2470 ft | 160 kts | 264° |
| 2026-04-23 16:58 | 26.04935 | 127.68568 | 2466 ft | 160 kts | 264° |
| 2026-04-23 16:58 | 26.04893 | 127.67289 | 2471 ft | 160 kts | 265° |
| 2026-04-23 16:59 | 26.05132 | 127.66016 | 2467 ft | 170 kts | 296° |
| 2026-04-23 16:59 | 26.06170 | 127.65206 | 2469 ft | 187 kts | 341° |
| 2026-04-23 16:59 | 26.07538 | 127.65168 | 2490 ft | 191 kts | 356° |
| 2026-04-23 16:59 | 26.08919 | 127.65193 | 2465 ft | 183 kts | 352° |
| 2026-04-23 17:00 | 26.10250 | 127.65111 | 2046 ft | 202 kts | 351° |
| 2026-04-23 17:00 | 26.11783 | 127.65015 | 1291 ft | 218 kts | 353° |
| 2026-04-23 17:00 | 26.13310 | 127.64925 | 849 ft | 195 kts | 354° |
| 2026-04-23 17:00 | 26.14657 | 127.64875 | 1023 ft | 180 kts | 355° |
| 2026-04-23 17:01 | 26.15935 | 127.64790 | 632 ft | 171 kts | 352° |
| 2026-04-23 17:01 | 26.17084 | 127.64693 | 996 ft | 160 kts | 352° |
| 2026-04-23 17:01 | 26.18238 | 127.64614 | 1608 ft | 161 kts | 351° |
| 2026-04-23 17:01 | 26.19406 | 127.64573 | 2162 ft | 168 kts | 353° |
| 2026-04-23 17:02 | 26.20238 | 127.64603 | 2018 ft | 172 kts | 356° |
| 2026-04-23 17:02 | 26.21824 | 127.64581 | 1960 ft | 160 kts | 344° |
| 2026-04-23 17:02 | 26.22981 | 127.64380 | 1967 ft | 161 kts | 341° |
| 2026-04-23 17:02 | 26.23996 | 127.63867 | 1974 ft | 149 kts | 316° |
| 2026-04-23 17:03 | 26.24918 | 127.63200 | 1962 ft | 151 kts | 322° |
| 2026-04-23 17:03 | 26.25948 | 127.62624 | 2276 ft | 178 kts | 326° |
| 2026-04-23 17:03 | 26.27193 | 127.61942 | 2589 ft | 203 kts | 327° |
| 2026-04-23 17:03 | 26.28557 | 127.61206 | 2877 ft | 212 kts | 327° |
| 2026-04-23 17:04 | 26.29939 | 127.60468 | 3188 ft | 211 kts | 327° |
| 2026-04-23 17:04 | 26.31326 | 127.59705 | 3494 ft | 212 kts | 322° |
| 2026-04-23 17:04 | 26.32376 | 127.58469 | 3799 ft | 213 kts | 288° |
| 2026-04-23 17:04 | 26.32509 | 127.56810 | 4110 ft | 211 kts | 257° |
| 2026-04-23 17:05 | 26.31896 | 127.55251 | 4414 ft | 212 kts | 236° |
| 2026-04-23 17:05 | 26.30757 | 127.54060 | 4715 ft | 221 kts | 216° |
| 2026-04-23 17:05 | 26.29329 | 127.53179 | 4775 ft | 223 kts | 218° |
| 2026-04-23 17:05 | 26.28314 | 127.51876 | 4777 ft | 214 kts | 244° |
| 2026-04-23 17:06 | 26.27644 | 127.50351 | 4773 ft | 204 kts | 244° |
| 2026-04-23 17:06 | 26.26830 | 127.48978 | 4773 ft | 204 kts | 232° |
| 2026-04-23 17:06 | 26.25725 | 127.47810 | 4785 ft | 218 kts | 221° |
| 2026-04-23 17:06 | 26.24346 | 127.46886 | 4786 ft | 224 kts | 209° |
| 2026-04-23 17:07 | 26.22794 | 127.46302 | 4795 ft | 228 kts | 197° |
| 2026-04-23 17:07 | 26.21149 | 127.46088 | 4805 ft | 232 kts | 186° |
| 2026-04-23 17:07 | 26.19139 | 127.46257 | 4546 ft | 239 kts | 175° |
| 2026-04-23 17:07 | 26.17450 | 127.46760 | 4272 ft | 239 kts | 167° |
| 2026-04-23 17:08 | 26.15823 | 127.47392 | 3996 ft | 238 kts | 167° |
| 2026-04-23 17:08 | 26.14197 | 127.48040 | 3715 ft | 236 kts | 167° |
| 2026-04-23 17:08 | 26.12588 | 127.48682 | 3385 ft | 236 kts | 166° |
| 2026-04-23 17:08 | 26.10994 | 127.49320 | 2957 ft | 231 kts | 166° |
| 2026-04-23 17:09 | 26.09450 | 127.49942 | 2500 ft | 223 kts | 166° |
| 2026-04-23 17:09 | 26.07939 | 127.50544 | 2062 ft | 216 kts | 166° |
| 2026-04-23 17:09 | 26.06598 | 127.51311 | 1948 ft | 201 kts | 150° |
| 2026-04-23 17:09 | 26.05582 | 127.52372 | 1969 ft | 190 kts | 133° |
| 2026-04-23 17:10 | 26.05124 | 127.53812 | 1968 ft | 198 kts | 98° |
| 2026-04-23 17:10 | 26.05137 | 127.55411 | 1966 ft | 198 kts | 93° |
| 2026-04-23 17:10 | 26.05142 | 127.57001 | 1969 ft | 197 kts | 95° |
| 2026-04-23 17:10 | 26.05091 | 127.58579 | 1972 ft | 196 kts | 97° |
| 2026-04-23 17:11 | 26.05019 | 127.60165 | 1972 ft | 197 kts | 97° |
| 2026-04-23 17:11 | 26.04954 | 127.61714 | 1964 ft | 185 kts | 98° |
| 2026-04-23 17:11 | 26.04950 | 127.63207 | 1971 ft | 189 kts | 88° |
| 2026-04-23 17:11 | 26.05451 | 127.64587 | 1969 ft | 192 kts | 47° |
| 2026-04-23 17:12 | 26.06184 | 127.65207 | 1980 ft | 190 kts | 26° |
| 2026-04-23 17:12 | 26.07898 | 127.65741 | 1932 ft | 180 kts | 348° |
| 2026-04-23 17:12 | 26.09165 | 127.65501 | 1855 ft | 178 kts | 338° |
| 2026-04-23 17:12 | 26.10396 | 127.65089 | 1517 ft | 175 kts | 339° |
| 2026-04-23 17:13 | 26.11668 | 127.64959 | 1320 ft | 179 kts | 354° |
| 2026-04-23 17:13 | 26.12958 | 127.64906 | 1118 ft | 184 kts | 355° |
| 2026-04-23 17:13 | 26.14265 | 127.64897 | 1036 ft | 185 kts | 355° |
| 2026-04-23 17:13 | 26.15682 | 127.64807 | 632 ft | 206 kts | 353° |
| 2026-04-23 17:14 | 26.17106 | 127.64691 | 305 ft | 188 kts | 356° |
| 2026-04-23 17:14 | 26.18430 | 127.64633 | 39 ft | 172 kts | 357° |
| 2026-04-23 17:14 | 26.19526 | 127.64597 | 29 ft | 123 kts | 356° |
| 2026-04-23 17:14 | 26.20208 | 127.64556 | 25 ft | 69 kts | 357° |
| 2026-04-23 17:15 | 26.20561 | 127.64540 | 22 ft | 28 kts | 358° |
| 2026-04-23 17:15 | 26.20624 | 127.64598 | 23 ft | 5 kts | 86° |
| 2026-04-23 17:15 | 26.20625 | 127.64619 | 24 ft | 4 kts | 88° |
| 2026-04-23 17:15 | 26.20627 | 127.64690 | 25 ft | 8 kts | 89° |
| 2026-04-23 17:16 | 26.20634 | 127.64729 | 26 ft | 3 kts | 50° |
| 2026-04-23 17:16 | 26.20664 | 127.64744 | 26 ft | 7 kts | 8° |
| 2026-04-23 17:16 | 26.20717 | 127.64740 | 26 ft | 7 kts | 357° |
| 2026-04-23 17:16 | 26.20766 | 127.64745 | 26 ft | 5 kts | 47° |
| 2026-04-23 17:17 | 26.20770 | 127.64783 | 27 ft | 4 kts | 93° |
| 2026-04-23 17:17 | 26.20772 | 127.64815 | 28 ft | 3 kts | 86° |
| 2026-04-23 17:17 | 26.20772 | 127.64822 | 28 ft | 0 kts | 88° |
| 2026-04-23 17:17 | 26.20772 | 127.64825 | 28 ft | 0 kts | 89° |